Felts Field Spokane US
ICAO: KSFF
IATA: SFF
Category: Medium
Scheduled Services: No

Elevation: 1953 ft
TransAlt. 18000 ft.

Airport Communications:
SPOKANE APP/DEP:133.35
ATIS:120.55
CTAF:132.5
GND:121.7
SEATTLE RDO:122.2
TWR:132.5
UNICOM:122.95

KSFF Zoom In..

Runways:

(A) RW 04L length 4499 ft width 150 ft
---- / hdg 38

(B) RW 04R length 2650 ft width 75 ft
---- / hdg 38

(C) RW 22L length 2650 ft width 75 ft
---- / hdg 218

(D) RW 22R length 4499 ft width 150 ft
ILS 111.70 / hdg 218

Location; KSFF
Day. 05 / Time. 17.53 Zulu
* Altimeter: 29.90
* Temperature: 28° c. 82.4°f.
* Wind from: 000° Speed 00 kn.
Dewpoint: 11° c.
Visibility: 10 Statute Miles.
Clouds: Clear (automated report).

KSFF 051753Z 00000KT 10SM CLR 28/11 A2990 RMK AO2 SLP109 T02780111 10283 20144 58008

Going to: --> -->


Wind - Calm.

 
 
jpsmedia worldairports.se 2020   terms of use